Time;durP1;ratioP1;P1;durP2;ratioP2;P2;SDS_P1;SDS_P2;PMS_P1;PMS_P2;Temp;Humidity;BMP_temperature;BMP_pressure;BME280_temperature;BME280_humidity;BME280_pressure;Samples;Min_cycle;Max_cycle;Signal;HPM_P1;HPM_P2
2022/05/05 00:01:25;;;;;;;;;;;;;;;15.05;100.00;100290.25;5088560;28;19912;-65
2022/05/05 00:03:51;;;;;;;;;;;;;;;15.04;100.00;100292.06;5089318;28;19916;-65
2022/05/05 00:06:16;;;;;;;;;;;;;;;15.08;100.00;100285.63;5090205;28;19912;-65
2022/05/05 00:08:41;;;;;;;;;;;;;;;15.02;100.00;100282.38;5093558;28;20503;-66
2022/05/05 00:16:34;;;;;;;;;;;;;;;14.92;100.00;100279.25;5096738;28;20453;-66
2022/05/05 00:19:01;;;;;;;;;;;;;;;14.89;100.00;100282.03;5113062;28;19916;-66
2022/05/05 00:21:26;;;;;;;;;;;;;;;14.88;100.00;100282.09;5113452;28;19995;-65
2022/05/05 00:23:51;;;;;;;;;;;;;;;14.88;100.00;100283.00;5113601;28;20065;-65
2022/05/05 00:26:17;;;;;;;;;;;;;;;14.85;100.00;100282.25;5113616;28;19912;-65
2022/05/05 00:28:42;;;;;;;;;;;;;;;14.84;100.00;100285.88;5113604;28;19912;-65
2022/05/05 00:31:07;;;;;;;;;;;;;;;14.81;100.00;100281.53;5099834;28;19915;-65
2022/05/05 00:33:33;;;;;;;;;;;;;;;14.81;100.00;100284.19;5093104;28;19947;-65
2022/05/05 00:35:58;;;;;;;;;;;;;;;14.79;100.00;100274.50;5092487;28;19923;-64
2022/05/05 00:38:24;;;;;;;;;;;;;;;14.78;100.00;100273.63;5091790;28;19916;-64
2022/05/05 00:40:49;;;;;;;;;;;;;;;14.78;100.00;100275.47;5092438;28;20301;-64
2022/05/05 00:43:15;;;;;;;;;;;;;;;14.76;100.00;100278.19;5092870;28;19942;-64
2022/05/05 00:45:40;;;;;;;;;;;;;;;14.74;100.00;100276.53;5092960;28;19916;-64
2022/05/05 00:48:06;;;;;;;;;;;;;;;14.75;100.00;100287.16;5092812;28;19962;-64
2022/05/05 00:50:32;;;;;;;;;;;;;;;14.74;100.00;100276.53;5092975;28;19920;-64
2022/05/05 00:52:57;;;;;;;;;;;;;;;14.67;100.00;100275.94;5092520;28;19923;-64
2022/05/05 00:55:22;;;;;;;;;;;;;;;14.67;100.00;100281.28;5092397;28;19916;-64
2022/05/05 00:57:48;;;;;;;;;;;;;;;14.70;100.00;100277.59;5092687;28;19912;-64
2022/05/05 01:00:13;;;;;;;;;;;;;;;14.70;100.00;100281.16;5086850;28;19917;-64
2022/05/05 01:02:39;;;;;;;;;;;;;;;14.70;100.00;100288.31;5072431;28;19924;-64
2022/05/05 01:05:04;;;;;;;;;;;;;;;14.70;100.00;100285.63;5070924;28;19912;-64
2022/05/05 01:07:29;;;;;;;;;;;;;;;14.71;100.00;100282.88;5070840;28;20050;-64
2022/05/05 01:09:56;;;;;;;;;;;;;;;14.71;100.00;100287.38;5075754;28;19999;-64
2022/05/05 01:12:23;;;;;;;;;;;;;;;14.78;100.00;100284.34;5091488;28;19933;-64
2022/05/05 01:14:49;;;;;;;;;;;;;;;14.76;100.00;100283.53;5091155;28;19992;-64
2022/05/05 01:17:14;;;;;;;;;;;;;;;14.68;100.00;100285.69;5095962;28;20381;-64
2022/05/05 01:19:40;;;;;;;;;;;;;;;14.57;100.00;100288.00;5072691;28;19912;-64
2022/05/05 01:22:06;;;;;;;;;;;;;;;14.55;100.00;100287.19;5071928;28;19982;-64
2022/05/05 01:30:03;;;;;;;;;;;;;;;14.47;100.00;100284.84;5076352;28;20378;-66
2022/05/05 01:32:32;;;;;;;;;;;;;;;14.51;100.00;100288.28;5091934;28;19916;-65
2022/05/05 01:34:57;;;;;;;;;;;;;;;14.46;100.00;100287.59;5092169;28;19916;-65
2022/05/05 01:37:23;;;;;;;;;;;;;;;14.38;100.00;100289.75;5091966;28;19916;-65
2022/05/05 01:39:48;;;;;;;;;;;;;;;14.42;100.00;100286.88;5092259;28;19912;-65
2022/05/05 01:42:14;;;;;;;;;;;;;;;14.38;100.00;100284.41;5092357;28;19997;-65
2022/05/05 01:44:39;;;;;;;;;;;;;;;14.30;100.00;100286.50;5091294;28;19916;-65
2022/05/05 01:47:04;;;;;;;;;;;;;;;14.30;100.00;100283.84;5092212;28;20310;-65
2022/05/05 01:49:30;;;;;;;;;;;;;;;14.25;100.00;100289.41;5091992;28;20003;-65
2022/05/05 01:51:55;;;;;;;;;;;;;;;14.20;100.00;100285.16;5092084;28;19956;-65
2022/05/05 01:54:21;;;;;;;;;;;;;;;14.16;100.00;100287.09;5092314;28;20287;-65
2022/05/05 01:56:46;;;;;;;;;;;;;;;14.15;100.00;100288.00;5092088;28;19966;-65
2022/05/05 01:59:11;;;;;;;;;;;;;;;14.16;100.00;100283.53;5090648;28;19919;-65
2022/05/05 02:01:37;;;;;;;;;;;;;;;14.12;100.00;100282.81;5091676;28;20406;-65
2022/05/05 02:04:02;;;;;;;;;;;;;;;14.09;100.00;100276.72;5091839;28;19977;-65
2022/05/05 02:06:28;;;;;;;;;;;;;;;14.09;100.00;100282.94;5091950;28;19912;-65
2022/05/05 02:08:53;;;;;;;;;;;;;;;14.03;100.00;100288.56;5088754;28;19912;-65
2022/05/05 02:11:18;;;;;;;;;;;;;;;14.06;100.00;100283.06;5088767;28;20295;-65
2022/05/05 02:13:44;;;;;;;;;;;;;;;14.07;100.00;100283.91;5091945;28;19984;-65
2022/05/05 02:16:09;;;;;;;;;;;;;;;14.06;100.00;100298.25;5090721;28;20302;-65
2022/05/05 02:18:34;;;;;;;;;;;;;;;14.00;100.00;100290.50;5116253;28;19911;-65
2022/05/05 02:20:59;;;;;;;;;;;;;;;14.05;100.00;100300.03;5115807;28;19985;-65
2022/05/05 02:23:25;;;;;;;;;;;;;;;14.02;100.00;100293.97;5116125;28;19916;-65
2022/05/05 02:25:50;;;;;;;;;;;;;;;13.94;100.00;100296.06;5115894;28;19919;-65
2022/05/05 02:28:15;;;;;;;;;;;;;;;13.90;100.00;100297.16;5116149;28;20357;-65
2022/05/05 02:30:40;;;;;;;;;;;;;;;13.80;100.00;100303.81;5105574;28;19912;-65
2022/05/05 02:33:06;;;;;;;;;;;;;;;13.75;100.00;100293.31;5095515;28;20391;-65
2022/05/05 02:35:31;;;;;;;;;;;;;;;13.66;100.00;100298.13;5095532;28;19912;-65
2022/05/05 02:40:41;;;;;;;;;;;;;;;13.62;100.00;100294.75;5095025;28;20405;-65
2022/05/05 02:43:09;;;;;;;;;;;;;;;13.60;100.00;100306.41;5094845;28;19952;-65
2022/05/05 02:45:34;;;;;;;;;;;;;;;13.59;100.00;100302.88;5095390;28;20665;-65
2022/05/05 02:47:59;;;;;;;;;;;;;;;13.61;100.00;100294.78;5094976;28;19912;-64
2022/05/05 02:50:25;;;;;;;;;;;;;;;13.59;100.00;100289.50;5095105;28;19912;-65
2022/05/05 02:52:50;;;;;;;;;;;;;;;13.58;100.00;100295.78;5095527;28;19964;-67
2022/05/05 02:55:16;;;;;;;;;;;;;;;13.57;100.00;100290.50;5095235;28;20394;-67
2022/05/05 02:57:41;;;;;;;;;;;;;;;13.54;100.00;100302.19;5094702;28;19920;-66
2022/05/05 03:00:08;;;;;;;;;;;;;;;13.55;100.00;100301.25;5089887;28;19990;-65
2022/05/05 03:02:33;;;;;;;;;;;;;;;13.51;100.00;100309.47;5080183;28;19939;-65
2022/05/05 03:04:59;;;;;;;;;;;;;;;13.40;100.00;100303.66;5095170;28;19912;-65
2022/05/05 03:07:24;;;;;;;;;;;;;;;13.37;100.00;100302.00;5094789;28;19929;-65
2022/05/05 03:09:49;;;;;;;;;;;;;;;13.38;100.00;100305.53;5094971;28;19923;-65
2022/05/05 03:12:15;;;;;;;;;;;;;;;13.36;100.00;100307.41;5094544;28;19959;-65
2022/05/05 03:14:40;;;;;;;;;;;;;;;13.30;100.00;100297.81;5079521;28;20019;-65
2022/05/05 03:17:05;;;;;;;;;;;;;;;13.30;100.00;100303.16;5090493;28;19912;-65
2022/05/05 03:19:31;;;;;;;;;;;;;;;13.23;100.00;100308.81;5115068;28;19919;-65
2022/05/05 03:21:57;;;;;;;;;;;;;;;13.24;100.00;100311.41;5114777;28;20448;-65
2022/05/05 03:24:23;;;;;;;;;;;;;;;13.18;100.00;100311.63;5114975;28;19916;-65
2022/05/05 03:26:48;;;;;;;;;;;;;;;13.17;100.00;100315.25;5113858;28;20418;-65
2022/05/05 03:29:13;;;;;;;;;;;;;;;13.20;100.00;100312.44;5114504;28;19928;-65
2022/05/05 03:31:39;;;;;;;;;;;;;;;13.21;100.00;100312.38;5094990;28;19912;-65
2022/05/05 03:34:04;;;;;;;;;;;;;;;13.21;100.00;100316.88;5093336;28;20377;-65
2022/05/05 03:36:30;;;;;;;;;;;;;;;13.20;100.00;100321.34;5092501;28;19912;-65
2022/05/05 03:38:55;;;;;;;;;;;;;;;13.33;100.00;100312.88;5092865;28;19912;-65
2022/05/05 03:41:21;;;;;;;;;;;;;;;13.40;100.00;100306.34;5092474;28;19951;-65
2022/05/05 03:43:46;;;;;;;;;;;;;;;13.35;100.00;100310.97;5092753;28;19915;-65
2022/05/05 03:46:12;;;;;;;;;;;;;;;13.36;100.00;100312.75;5093921;28;19920;-65
2022/05/05 03:48:37;;;;;;;;;;;;;;;13.35;100.00;100314.53;5094204;28;20029;-65
2022/05/05 03:51:02;;;;;;;;;;;;;;;13.37;100.00;100325.16;5093827;28;19990;-65
2022/05/05 03:53:28;;;;;;;;;;;;;;;13.42;100.00;100320.50;5080428;28;19919;-65
2022/05/05 03:55:53;;;;;;;;;;;;;;;13.43;100.00;100328.47;5073400;28;19965;-65
2022/05/05 03:58:18;;;;;;;;;;;;;;;13.45;100.00;100321.25;5073717;28;20011;-65
2022/05/05 04:00:45;;;;;;;;;;;;;;;13.47;100.00;100316.75;5083599;28;20268;-65
2022/05/05 04:05:54;;;;;;;;;;;;;;;13.55;100.00;100321.75;5090118;28;19926;-65
2022/05/05 04:08:20;;;;;;;;;;;;;;;13.58;100.00;100327.84;5093899;28;20283;-65
2022/05/05 04:10:45;;;;;;;;;;;;;;;13.65;100.00;100328.47;5093275;28;20017;-65
2022/05/05 04:13:10;;;;;;;;;;;;;;;13.71;100.00;100333.56;5093648;28;19912;-65
2022/05/05 04:15:36;;;;;;;;;;;;;;;13.78;100.00;100329.72;5093425;28;19930;-65
2022/05/05 04:18:01;;;;;;;;;;;;;;;13.78;100.00;100335.06;5104031;28;19962;-65
2022/05/05 04:20:26;;;;;;;;;;;;;;;13.76;100.00;100336.94;5074497;28;20372;-65
2022/05/05 04:22:52;;;;;;;;;;;;;;;13.70;100.00;100345.22;5074352;28;19939;-65
2022/05/05 04:25:17;;;;;;;;;;;;;;;13.64;100.00;100348.16;5072813;28;19919;-65
2022/05/05 04:27:43;;;;;;;;;;;;;;;13.68;100.00;100345.28;5073032;28;20000;-65
2022/05/05 04:30:09;;;;;;;;;;;;;;;13.77;100.00;100349.41;5078283;28;19924;-65
2022/05/05 04:32:34;;;;;;;;;;;;;;;13.74;100.00;100345.03;5093419;28;19956;-65
2022/05/05 04:35:00;;;;;;;;;;;;;;;13.73;100.00;100345.09;5093212;28;20350;-65
2022/05/05 04:37:25;;;;;;;;;;;;;;;13.73;100.00;100359.34;5093300;28;19916;-65
2022/05/05 04:39:50;;;;;;;;;;;;;;;13.78;100.00;100351.13;5091975;28;19957;-65
2022/05/05 04:42:15;;;;;;;;;;;;;;;13.87;100.00;100358.78;5092921;28;19920;-65
2022/05/05 04:44:41;;;;;;;;;;;;;;;13.94;100.00;100362.94;5092856;28;19995;-65
2022/05/05 04:47:06;;;;;;;;;;;;;;;13.98;100.00;100361.88;5091275;28;20033;-65
2022/05/05 04:49:32;;;;;;;;;;;;;;;14.06;100.00;100362.44;5093011;28;19912;-65
2022/05/05 04:51:57;;;;;;;;;;;;;;;14.09;100.00;100363.19;5092909;28;19912;-65
2022/05/05 04:54:22;;;;;;;;;;;;;;;14.16;100.00;100363.81;5092722;28;19916;-65
2022/05/05 04:56:48;;;;;;;;;;;;;;;14.22;100.00;100364.41;5092492;28;19912;-65
2022/05/05 04:59:13;;;;;;;;;;;;;;;14.28;100.00;100374.03;5092516;28;20177;-65
2022/05/05 05:01:39;;;;;;;;;;;;;;;14.38;100.00;100375.41;5074591;28;19912;-65
2022/05/05 05:04:06;;;;;;;;;;;;;;;14.45;100.00;100371.50;5090248;28;19920;-65
2022/05/05 05:06:31;;;;;;;;;;;;;;;14.48;100.00;100376.72;5092593;28;19912;-65
2022/05/05 05:08:56;;;;;;;;;;;;;;;14.53;100.00;100380.94;5087719;28;20003;-65
2022/05/05 05:11:23;;;;;;;;;;;;;;;14.56;100.00;100379.09;5072273;28;20343;-65
2022/05/05 05:13:48;;;;;;;;;;;;;;;14.58;100.00;100383.41;5072606;28;19954;-65
2022/05/05 05:16:13;;;;;;;;;;;;;;;14.63;100.00;100376.06;5073619;28;19939;-65
2022/05/05 05:18:39;;;;;;;;;;;;;;;14.65;100.00;100381.34;5112940;28;20367;-66
2022/05/05 05:21:04;;;;;;;;;;;;;;;14.65;100.00;100379.56;5111092;28;19928;-65
2022/05/05 05:23:30;;;;;;;;;;;;;;;14.64;100.00;100383.19;5112601;28;19930;-65
2022/05/05 05:25:55;;;;;;;;;;;;;;;14.68;100.00;100383.91;5112564;28;19912;-65
2022/05/05 05:28:20;;;;;;;;;;;;;;;14.70;100.00;100385.56;5113068;28;20306;-65
2022/05/05 05:30:46;;;;;;;;;;;;;;;14.73;100.00;100382.75;5102067;28;19912;-65
2022/05/05 05:33:11;;;;;;;;;;;;;;;14.78;100.00;100383.44;5092277;28;19912;-65
2022/05/05 05:35:36;;;;;;;;;;;;;;;14.85;100.00;100384.91;5092282;28;20000;-65
2022/05/05 05:38:02;;;;;;;;;;;;;;;14.87;100.00;100391.06;5090398;28;19919;-65
2022/05/05 05:40:27;;;;;;;;;;;;;;;14.88;100.00;100392.81;5092030;28;20007;-65
2022/05/05 05:42:52;;;;;;;;;;;;;;;14.89;100.00;100394.53;5092045;28;20391;-65
2022/05/05 05:45:18;;;;;;;;;;;;;;;14.83;100.00;100393.94;5092157;28;20372;-65
2022/05/05 05:47:44;;;;;;;;;;;;;;;14.77;100.00;100400.44;5091144;28;19916;-65
2022/05/05 05:50:10;;;;;;;;;;;;;;;14.79;100.00;100403.06;5090984;28;19918;-66
2022/05/05 05:52:35;;;;;;;;;;;;;;;14.75;100.00;100401.44;5094267;28;20269;-66
2022/05/05 05:55:00;;;;;;;;;;;;;;;14.77;100.00;100402.25;5094431;28;20007;-66
2022/05/05 05:57:26;;;;;;;;;;;;;;;14.75;100.00;100402.31;5082772;28;19920;-66
2022/05/05 05:59:51;;;;;;;;;;;;;;;14.80;100.00;100399.44;5074095;28;19916;-66
2022/05/05 06:05:00;;;;;;;;;;;;;;;14.78;100.00;100404.00;5096564;28;20013;-66
2022/05/05 06:07:25;;;;;;;;;;;;;;;14.84;100.00;100407.28;5095725;28;20404;-66
2022/05/05 06:09:50;;;;;;;;;;;;;;;14.82;100.00;100405.59;5096104;28;19912;-66
2022/05/05 06:12:16;;;;;;;;;;;;;;;14.82;100.00;100403.81;5095698;28;19957;-66
2022/05/05 06:14:41;;;;;;;;;;;;;;;14.87;100.00;100412.50;5094061;28;19912;-66
2022/05/05 06:17:06;;;;;;;;;;;;;;;14.90;100.00;100417.72;5093464;28;19912;-66
2022/05/05 06:19:32;;;;;;;;;;;;;;;14.94;100.00;100413.94;5116203;28;19918;-66
2022/05/05 06:21:57;;;;;;;;;;;;;;;14.89;100.00;100428.50;5115789;28;19920;-66
2022/05/05 06:24:23;;;;;;;;;;;;;;;14.92;100.00;100426.56;5115233;28;19945;-67
2022/05/05 06:26:48;;;;;;;;;;;;;;;14.89;100.00;100424.00;5107079;28;20004;-70
2022/05/05 06:29:14;;;;;;;;;;;;;;;14.90;100.00;100433.78;5075549;28;19917;-66
2022/05/05 06:31:39;;;;;;;;;;;;;;;14.93;100.00;100427.41;5080571;28;19920;-66
2022/05/05 06:34:04;;;;;;;;;;;;;;;14.97;100.00;100435.28;5076261;28;20391;-66
2022/05/05 06:36:30;;;;;;;;;;;;;;;14.97;100.00;100435.28;5090586;28;20283;-66
2022/05/05 06:38:55;;;;;;;;;;;;;;;14.94;100.00;100448.78;5076551;28;20361;-66
2022/05/05 06:41:20;;;;;;;;;;;;;;;14.91;100.00;100448.91;5089404;28;19951;-67
2022/05/05 06:43:46;;;;;;;;;;;;;;;14.92;100.00;100448.00;5095086;28;19916;-67
2022/05/05 06:46:11;;;;;;;;;;;;;;;14.93;100.00;100444.38;5075919;28;19946;-67
2022/05/05 06:48:37;;;;;;;;;;;;;;;14.98;100.00;100444.16;5074994;28;19920;-66
2022/05/05 06:51:02;;;;;;;;;;;;;;;14.99;100.00;100444.09;5086348;28;19999;-66
2022/05/05 06:53:27;;;;;;;;;;;;;;;15.07;100.00;100441.97;5095353;28;19916;-66
2022/05/05 06:55:55;;;;;;;;;;;;;;;15.15;100.00;100449.66;5094439;28;20006;-66
2022/05/05 06:58:21;;;;;;;;;;;;;;;15.17;100.00;100462.03;5075948;28;19927;-66
2022/05/05 07:03:30;;;;;;;;;;;;;;;15.20;100.00;100459.25;5073646;28;20410;-66
2022/05/05 07:05:55;;;;;;;;;;;;;;;15.19;100.00;100462.84;5090485;28;19963;-66
2022/05/05 07:08:21;;;;;;;;;;;;;;;15.19;100.00;100460.16;5094934;28;19923;-66
2022/05/05 07:10:52;;;;;;;;;;;;;;;15.24;100.00;100466.19;5094100;28;19912;-66
2022/05/05 07:13:18;;;;;;;;;;;;;;;15.30;100.00;100471.31;5074252;28;19948;-66
2022/05/05 07:15:44;;;;;;;;;;;;;;;15.24;100.00;100471.56;5074801;28;19916;-66
2022/05/05 07:18:09;;;;;;;;;;;;;;;15.19;100.00;100470.88;5108463;28;19912;-66
2022/05/05 07:20:34;;;;;;;;;;;;;;;15.15;100.00;100481.81;5114821;28;19916;-66
2022/05/05 07:23:00;;;;;;;;;;;;;;;15.18;100.00;100474.50;5079309;28;20023;-66
2022/05/05 07:25:25;;;;;;;;;;;;;;;15.22;100.00;100473.44;5075637;28;20385;-66
2022/05/05 07:27:51;;;;;;;;;;;;;;;15.29;100.00;100484.75;5079279;28;19920;-66
2022/05/05 07:30:16;;;;;;;;;;;;;;;15.29;100.00;100479.38;5091767;28;19981;-66
2022/05/05 07:32:42;;;;;;;;;;;;;;;15.33;100.00;100489.03;5074480;28;20447;-66
2022/05/05 07:35:09;;;;;;;;;;;;;;;15.34;100.00;100483.63;5080484;28;19912;-66
2022/05/05 07:37:35;;;;;;;;;;;;;;;15.32;100.00;100485.47;5087257;28;20212;-66
2022/05/05 07:40:00;;;;;;;;;;;;;;;15.31;100.00;100494.47;5089976;28;20272;-66
2022/05/05 07:42:26;;;;;;;;;;;;;;;15.32;100.00;100488.16;5094143;28;20019;-66
2022/05/05 07:44:51;;;;;;;;;;;;;;;15.32;100.00;100490.84;5093668;28;20004;-66
2022/05/05 07:47:16;;;;;;;;;;;;;;;15.34;100.00;100493.44;5089519;28;20268;-66
2022/05/05 07:49:42;;;;;;;;;;;;;;;15.36;100.00;100492.47;5073972;28;20365;-66
2022/05/05 07:52:07;;;;;;;;;;;;;;;15.49;100.00;100498.16;5074319;28;19913;-66
2022/05/05 07:54:36;;;;;;;;;;;;;;;15.53;100.00;100494.44;5075899;28;20378;-66
2022/05/05 07:57:02;;;;;;;;;;;;;;;15.55;100.00;100501.44;5076696;28;19960;-66
2022/05/05 07:59:27;;;;;;;;;;;;;;;15.60;100.00;100502.09;5073986;28;20441;-66
2022/05/05 08:01:53;;;;;;;;;;;;;;;15.53;100.00;100497.97;5090471;28;19912;-66
2022/05/05 08:04:18;;;;;;;;;;;;;;;15.53;100.00;100499.78;5093621;28;20279;-68
2022/05/05 08:06:44;;;;;;;;;;;;;;;15.54;100.00;100499.72;5084893;28;20342;-65
2022/05/05 08:09:09;;;;;;;;;;;;;;;15.56;100.00;100511.25;5075139;28;19924;-65
2022/05/05 08:11:37;;;;;;;;;;;;;;;15.60;100.00;100504.78;5078183;28;20133;-65
2022/05/05 08:14:02;;;;;;;;;;;;;;;15.67;100.00;100508.06;5089630;28;20280;-65
2022/05/05 08:16:28;;;;;;;;;;;;;;;15.75;100.00;100503.22;5091334;28;20065;-64
2022/05/05 08:18:53;;;;;;;;;;;;;;;15.76;100.00;100508.50;5092394;28;19912;-64
2022/05/05 08:21:18;;;;;;;;;;;;;;;15.79;100.00;100508.41;5092243;28;19931;-64
2022/05/05 08:23:43;;;;;;;;;;;;;;;15.87;100.00;100509.81;5088685;28;20746;-64
2022/05/05 08:28:52;;;;;;;;;;;;;;;16.14;100.00;100511.25;5092416;28;20008;-64
2022/05/05 08:31:18;;;;;;;;;;;;;;;16.20;100.00;100513.63;5093351;28;19920;-64
2022/05/05 08:33:44;;;;;;;;;;;;;;;16.37;100.00;100511.88;5092208;28;19930;-64
2022/05/05 08:36:09;;;;;;;;;;;;;;;16.31;99.83;100514.84;5092252;28;19919;-64
2022/05/05 08:38:35;;;;;;;;;;;;;;;16.34;100.00;100527.28;5093002;28;19912;-64
2022/05/05 08:41:01;;;;;;;;;;;;;;;16.32;99.59;100523.78;5093286;28;19937;-64
2022/05/05 08:43:26;;;;;;;;;;;;;;;16.33;98.39;100520.13;5093104;28;20045;-64
2022/05/05 08:45:55;;;;;;;;;;;;;;;16.39;99.87;100525.25;5093092;28;20330;-64
2022/05/05 08:48:20;;;;;;;;;;;;;;;16.30;99.82;100529.22;5093053;28;19911;-64
2022/05/05 08:50:51;;;;;;;;;;;;;;;16.43;99.82;100527.69;5093022;28;19934;-64
2022/05/05 08:53:19;;;;;;;;;;;;;;;16.51;96.95;100536.28;5092265;28;19916;-64
2022/05/05 08:55:44;;;;;;;;;;;;;;;16.64;94.23;100539.22;5091633;28;19916;-64
2022/05/05 08:58:10;;;;;;;;;;;;;;;16.67;95.22;100542.63;5093196;28;20040;-64
2022/05/05 09:00:36;;;;;;;;;;;;;;;16.59;94.76;100538.59;5092799;28;19919;-64
2022/05/05 09:03:04;;;;;;;;;;;;;;;16.67;97.61;100547.16;5093806;28;19916;-64
2022/05/05 09:05:44;;;;;;;;;;;;;;;16.72;98.76;100545.97;5086998;28;19913;-65
2022/05/05 09:08:30;;;;;;;;;;;;;;;16.75;98.98;100544.97;5071134;28;19912;-64
2022/05/05 09:11:06;;;;;;;;;;;;;;;16.76;99.07;100546.69;5072078;28;20025;-64
2022/05/05 09:13:34;;;;;;;;;;;;;;;16.83;99.01;100537.38;5072568;28;19916;-64
2022/05/05 09:16:00;;;;;;;;;;;;;;;16.75;99.00;100544.97;5072094;28;19913;-64
2022/05/05 09:18:26;;;;;;;;;;;;;;;16.75;98.97;100544.97;5111024;28;20446;-64
2022/05/05 09:20:51;;;;;;;;;;;;;;;16.68;98.88;100549.78;5112848;28;19923;-64
2022/05/05 09:23:30;;;;;;;;;;;;;;;16.51;96.73;100552.41;5112853;28;19915;-64
2022/05/05 09:25:56;;;;;;;;;;;;;;;16.44;96.91;100550.06;5112077;28;19916;-64
2022/05/05 09:28:22;;;;;;;;;;;;;;;16.27;96.89;100548.16;5113860;28;19922;-65
2022/05/05 09:30:48;;;;;;;;;;;;;;;16.19;96.50;100550.34;5101624;28;19947;-65
2022/05/05 09:33:15;;;;;;;;;;;;;;;16.19;98.28;100549.47;5092846;28;19965;-65
2022/05/05 09:35:40;;;;;;;;;;;;;;;16.22;100.00;100554.69;5092001;28;19912;-65
2022/05/05 09:38:05;;;;;;;;;;;;;;;16.11;99.78;100563.22;5092362;28;19912;-65
2022/05/05 09:40:31;;;;;;;;;;;;;;;16.06;100.00;100557.22;5092351;28;19963;-65
2022/05/05 09:42:56;;;;;;;;;;;;;;;16.03;100.00;100556.50;5092262;28;20325;-65
2022/05/05 09:45:23;;;;;;;;;;;;;;;16.01;100.00;100556.56;5091984;28;19969;-65
2022/05/05 09:47:55;;;;;;;;;;;;;;;16.10;100.00;100561.50;5092192;28;19912;-65
2022/05/05 09:50:21;;;;;;;;;;;;;;;16.14;100.00;100562.22;5092030;28;19938;-65
2022/05/05 09:58:17;;;;;;;;;;;;;;;16.19;100.00;100566.47;5072279;28;20421;-65
2022/05/05 10:00:47;;;;;;;;;;;;;;;16.22;100.00;100576.16;5081792;28;20003;-65
2022/05/05 10:06:02;;;;;;;;;;;;;;;16.01;100.00;100574.47;5074378;28;19920;-65
2022/05/05 10:08:45;;;;;;;;;;;;;;;15.94;100.00;100581.06;5072212;28;19913;-65
2022/05/05 10:11:14;;;;;;;;;;;;;;;15.56;99.23;100575.59;5072886;28;19999;-64
2022/05/05 10:13:39;;;;;;;;;;;;;;;15.45;95.62;100577.84;5071839;28;19923;-64
2022/05/05 10:16:06;;;;;;;;;;;;;;;15.42;94.45;100577.16;5071671;28;19928;-64
2022/05/05 10:18:32;;;;;;;;;;;;;;;15.32;96.13;100578.44;5111579;28;19911;-64
2022/05/05 10:21:01;;;;;;;;;;;;;;;15.38;93.64;100584.41;5111251;28;19927;-64
2022/05/05 10:23:45;;;;;;;;;;;;;;;15.29;92.38;100587.47;5089515;28;19916;-64
2022/05/05 10:26:11;;;;;;;;;;;;;;;15.33;92.57;100589.09;5091449;28;19915;-65
2022/05/05 10:28:47;;;;;;;;;;;;;;;15.35;91.62;100587.19;5091838;28;20312;-65
2022/05/05 10:31:28;;;;;;;;;;;;;;;15.31;90.66;100585.59;5091566;28;19967;-65
2022/05/05 10:34:04;;;;;;;;;;;;;;;15.39;90.55;100582.63;5091885;28;19919;-65
2022/05/05 10:36:30;;;;;;;;;;;;;;;15.48;90.90;100582.25;5092655;28;19919;-65
2022/05/05 10:38:56;;;;;;;;;;;;;;;15.64;92.21;100585.97;5095420;28;19916;-65
2022/05/05 10:41:37;;;;;;;;;;;;;;;15.75;93.29;100581.88;5095295;28;19912;-65
2022/05/05 10:44:24;;;;;;;;;;;;;;;15.82;91.36;100575.31;5095329;28;19916;-65
2022/05/05 10:46:52;;;;;;;;;;;;;;;15.90;89.10;100579.47;5075301;28;20034;-65
2022/05/05 10:49:30;;;;;;;;;;;;;;;16.18;90.46;100583.47;5073829;28;19912;-62
2022/05/05 10:52:13;;;;;;;;;;;;;;;16.26;86.84;100584.00;5074785;28;20440;-62
2022/05/05 10:54:48;;;;;;;;;;;;;;;16.49;87.23;100575.75;5074960;28;20031;-62
2022/05/05 10:57:25;;;;;;;;;;;;;;;16.68;84.46;100581.13;5089709;28;19912;-61
2022/05/05 11:00:10;;;;;;;;;;;;;;;16.70;83.86;100573.88;5094695;28;20393;-62
2022/05/05 11:02:36;;;;;;;;;;;;;;;16.81;84.36;100576.91;5094907;28;19920;-62
2022/05/05 11:05:19;;;;;;;;;;;;;;;16.80;84.82;100577.84;5094925;28;20026;-61
2022/05/05 11:07:46;;;;;;;;;;;;;;;16.87;84.15;100579.28;5093838;28;20439;-61
2022/05/05 11:10:29;;;;;;;;;;;;;;;16.89;83.82;100570.19;5078928;28;19916;-61
2022/05/05 11:12:54;;;;;;;;;;;;;;;17.02;85.44;100571.31;5072977;28;20074;-61
2022/05/05 11:23:59;;;;;;;;;;;;;;;17.22;84.18;100578.38;5115171;28;20401;-61
2022/05/05 11:26:25;;;;;;;;;;;;;;;17.27;82.48;100580.84;5110747;28;19918;-61
2022/05/05 11:28:50;;;;;;;;;;;;;;;17.31;82.01;100577.94;5094952;28;19931;-61
2022/05/05 11:31:19;;;;;;;;;;;;;;;17.55;85.03;100581.19;5094170;28;19912;-61
2022/05/05 11:33:53;;;;;;;;;;;;;;;17.59;82.36;100572.91;5094573;28;20010;-61
2022/05/05 11:36:19;;;;;;;;;;;;;;;17.86;82.60;100574.13;5094334;28;19916;-61
2022/05/05 11:38:44;;;;;;;;;;;;;;;17.92;81.88;100581.84;5094693;28;19943;-61
2022/05/05 11:41:10;;;;;;;;;;;;;;;18.13;80.75;100586.09;5094045;28;19912;-61
2022/05/05 11:46:19;;;;;;;;;;;;;;;18.35;75.31;100581.25;5094405;28;19973;-61
2022/05/05 11:48:54;;;;;;;;;;;;;;;18.36;73.22;100585.72;5093850;28;19955;-61
2022/05/05 11:51:24;;;;;;;;;;;;;;;18.17;73.63;100587.66;5094153;28;20379;-61
2022/05/05 11:53:57;;;;;;;;;;;;;;;18.14;73.12;100582.44;5094104;28;20014;-61
2022/05/05 11:56:23;;;;;;;;;;;;;;;18.11;73.88;100579.94;5094051;28;19912;-61
2022/05/05 12:01:41;;;;;;;;;;;;;;;18.51;72.16;100569.66;5087633;28;19974;-61
2022/05/05 12:04:08;;;;;;;;;;;;;;;18.79;72.67;100564.47;5076268;28;20376;-61
2022/05/05 12:06:34;;;;;;;;;;;;;;;19.02;73.90;100572.09;5073701;28;20010;-61
2022/05/05 12:09:00;;;;;;;;;;;;;;;19.01;71.19;100564.97;5075906;28;19951;-61
2022/05/05 12:11:25;;;;;;;;;;;;;;;19.04;69.17;100564.78;5073491;28;19919;-61
2022/05/05 12:13:51;;;;;;;;;;;;;;;18.82;68.40;100570.53;5073406;28;19959;-61
2022/05/05 12:16:19;;;;;;;;;;;;;;;18.78;70.99;100568.97;5075574;28;19955;-61
2022/05/05 12:18:51;;;;;;;;;;;;;;;18.89;72.71;100571.06;5113998;28;19924;-61
2022/05/05 12:21:20;;;;;;;;;;;;;;;18.85;69.43;100569.47;5101680;28;19924;-61
2022/05/05 12:23:45;;;;;;;;;;;;;;;18.88;71.17;100569.34;5092956;28;19973;-61
2022/05/05 12:26:11;;;;;;;;;;;;;;;18.86;69.63;100572.09;5091711;28;19912;-61
2022/05/05 12:28:49;;;;;;;;;;;;;;;18.85;68.50;100569.47;5093102;28;20340;-61
2022/05/05 12:31:21;;;;;;;;;;;;;;;18.92;70.72;100566.38;5093093;28;19974;-61
2022/05/05 12:33:47;;;;;;;;;;;;;;;19.00;69.58;100569.47;5093324;28;19912;-61
2022/05/05 12:36:13;;;;;;;;;;;;;;;19.04;70.35;100567.47;5092875;28;19923;-61
2022/05/05 12:38:38;;;;;;;;;;;;;;;19.01;70.39;100562.28;5093129;28;19912;-61
2022/05/05 12:41:08;;;;;;;;;;;;;;;19.01;68.10;100571.19;5092742;28;20010;-61
2022/05/05 12:43:34;;;;;;;;;;;;;;;18.84;66.75;100565.06;5093402;28;20383;-61
2022/05/05 12:46:04;;;;;;;;;;;;;;;19.02;72.14;100570.25;5092735;28;19947;-61
2022/05/05 12:48:30;;;;;;;;;;;;;;;18.97;66.45;100563.38;5092839;28;20011;-61
2022/05/05 12:50:55;;;;;;;;;;;;;;;19.08;68.05;100563.63;5092884;28;19919;-61
2022/05/05 13:01:36;;;;;;;;;;;;;;;19.28;63.78;100552.53;5082955;28;20323;-61
2022/05/05 13:04:05;;;;;;;;;;;;;;;19.32;63.52;100554.97;5072610;28;19917;-61
2022/05/05 13:06:30;;;;;;;;;;;;;;;19.19;62.05;100555.78;5072211;28;20023;-61
2022/05/05 13:08:56;;;;;;;;;;;;;;;19.14;62.59;100552.50;5072521;28;20011;-61
2022/05/05 13:11:22;;;;;;;;;;;;;;;19.18;62.83;100557.59;5071879;28;19917;-61
2022/05/05 13:13:48;;;;;;;;;;;;;;;19.35;64.13;100559.34;5072370;28;20015;-61
2022/05/05 13:16:14;;;;;;;;;;;;;;;19.38;65.45;100553.75;5073724;28;19912;-61
2022/05/05 13:18:39;;;;;;;;;;;;;;;19.45;65.99;100556.00;5112921;28;20294;-61
2022/05/05 13:21:05;;;;;;;;;;;;;;;19.47;65.18;100558.63;5107547;28;19928;-61
2022/05/05 13:23:30;;;;;;;;;;;;;;;19.38;65.13;100560.03;5092371;28;19995;-61